createdAt,value
2017-09-26T00:01:23.641Z,17.40
2017-09-26T00:03:51.140Z,17.63
2017-09-26T00:06:18.632Z,19.27
2017-09-26T00:08:46.164Z,20.30
2017-09-26T00:11:14.582Z,22.77
2017-09-26T00:13:42.135Z,21.50
2017-09-26T00:16:09.648Z,25.77
2017-09-26T00:18:37.160Z,30.37
2017-09-26T00:21:04.975Z,37.30
2017-09-26T00:23:32.476Z,34.73
2017-09-26T00:26:00.005Z,38.00
2017-09-26T00:28:27.512Z,38.70
2017-09-26T00:30:55.457Z,36.30
2017-09-26T00:33:22.990Z,25.23
2017-09-26T00:35:50.933Z,19.53
2017-09-26T00:38:19.141Z,20.00
2017-09-26T00:40:46.645Z,26.53
2017-09-26T00:43:14.237Z,30.63
2017-09-26T00:45:42.503Z,27.90
2017-09-26T00:48:10.431Z,27.13
2017-09-26T00:50:37.967Z,27.40
2017-09-26T00:53:05.512Z,30.50
2017-09-26T00:55:33.016Z,30.47
2017-09-26T00:58:00.537Z,31.30
2017-09-26T01:00:38.820Z,34.20
2017-09-26T01:03:06.351Z,32.97
2017-09-26T01:05:38.378Z,32.37
2017-09-26T01:08:05.928Z,37.67
2017-09-26T01:10:34.234Z,34.83
2017-09-26T01:13:01.737Z,44.07
2017-09-26T01:15:29.314Z,41.33
2017-09-26T01:17:57.624Z,40.77
2017-09-26T01:20:25.500Z,36.93
2017-09-26T01:22:52.996Z,47.07
2017-09-26T01:25:20.532Z,47.13
2017-09-26T01:27:48.049Z,41.23
2017-09-26T01:30:15.572Z,44.60
2017-09-26T01:32:43.065Z,33.63
2017-09-26T01:35:11.381Z,36.17
2017-09-26T01:37:39.636Z,32.53
2017-09-26T01:40:07.548Z,34.93
2017-09-26T01:42:35.088Z,29.73
2017-09-26T01:45:02.832Z,34.30
2017-09-26T01:47:30.765Z,36.10
2017-09-26T01:49:58.273Z,37.10
2017-09-26T01:52:25.832Z,37.43
2017-09-26T01:54:54.204Z,40.97
2017-09-26T01:57:25.288Z,40.33
2017-09-26T01:59:54.486Z,42.63
2017-09-26T02:02:22.027Z,53.60
2017-09-26T02:04:49.531Z,40.63
2017-09-26T02:07:17.858Z,41.40
2017-09-26T02:09:45.421Z,39.23
2017-09-26T02:12:13.154Z,38.87
2017-09-26T02:14:40.670Z,37.37
2017-09-26T02:17:08.193Z,35.53
2017-09-26T02:19:35.701Z,45.37
2017-09-26T02:22:04.322Z,44.90
2017-09-26T02:24:31.848Z,41.63
2017-09-26T02:27:00.173Z,44.10
2017-09-26T02:29:27.704Z,41.97
2017-09-26T02:31:55.252Z,50.33
2017-09-26T02:34:23.553Z,56.23
2017-09-26T02:36:51.051Z,68.50
2017-09-26T02:39:18.576Z,99.03
2017-09-26T02:41:46.213Z,78.77
2017-09-26T02:44:14.555Z,55.47
2017-09-26T02:46:42.052Z,69.67
2017-09-26T02:49:09.596Z,106.93
2017-09-26T02:51:37.855Z,77.27
2017-09-26T02:54:06.164Z,68.73
2017-09-26T02:56:34.063Z,66.30
2017-09-26T02:59:02.336Z,62.93
2017-09-26T03:01:29.873Z,61.67
2017-09-26T03:03:57.443Z,58.60
2017-09-26T03:06:24.932Z,58.20
2017-09-26T03:08:52.944Z,55.83
2017-09-26T03:11:20.507Z,43.67
2017-09-26T03:13:48.412Z,36.60
2017-09-26T03:16:15.940Z,31.47
2017-09-26T03:18:43.427Z,37.83
2017-09-26T03:21:10.970Z,43.77
2017-09-26T03:23:38.475Z,49.73
2017-09-26T03:26:06.414Z,40.83
2017-09-26T03:28:34.728Z,40.77
2017-09-26T03:31:03.009Z,50.50
2017-09-26T03:33:30.715Z,41.33
2017-09-26T03:35:58.208Z,53.50
2017-09-26T03:38:25.713Z,45.33
2017-09-26T03:40:53.237Z,42.40
2017-09-26T03:43:20.756Z,43.17
2017-09-26T03:45:48.257Z,50.50
2017-09-26T03:48:17.364Z,44.90
2017-09-26T03:50:44.865Z,35.63
2017-09-26T03:53:12.381Z,39.80
2017-09-26T03:55:40.330Z,53.23
2017-09-26T03:58:08.271Z,46.50
2017-09-26T04:00:35.760Z,45.13
2017-09-26T04:03:03.679Z,43.77
2017-09-26T04:05:31.240Z,47.50
2017-09-26T04:07:58.784Z,51.07
2017-09-26T04:10:26.271Z,53.03
2017-09-26T04:12:53.793Z,53.83
2017-09-26T04:15:21.369Z,50.17
2017-09-26T04:17:48.877Z,51.87
2017-09-26T04:20:16.756Z,89.33
2017-09-26T04:22:44.308Z,54.67
2017-09-26T04:25:11.844Z,51.57
2017-09-26T04:27:39.384Z,44.83
2017-09-26T04:30:07.319Z,36.90
2017-09-26T04:32:34.815Z,34.00
2017-09-26T04:35:02.351Z,38.20
2017-09-26T04:37:30.091Z,42.37
2017-09-26T04:39:58.561Z,36.10
2017-09-26T04:42:26.089Z,34.30
2017-09-26T04:44:54.353Z,42.17
2017-09-26T04:47:21.903Z,47.13
2017-09-26T04:49:49.396Z,46.03
2017-09-26T04:52:17.796Z,43.47
2017-09-26T04:54:45.328Z,48.40
2017-09-26T04:57:12.820Z,55.90
2017-09-26T04:59:41.172Z,53.67
2017-09-26T05:02:09.112Z,47.47
2017-09-26T05:04:36.628Z,45.50
2017-09-26T05:07:04.540Z,47.00
2017-09-26T05:09:32.098Z,45.93
2017-09-26T05:11:59.600Z,41.57
2017-09-26T05:14:27.215Z,47.20
2017-09-26T05:16:54.720Z,49.90
2017-09-26T05:19:22.365Z,60.13
2017-09-26T05:21:49.917Z,52.40
2017-09-26T05:24:17.412Z,62.10
2017-09-26T05:26:45.679Z,57.07
2017-09-26T05:29:13.984Z,60.40
2017-09-26T05:31:41.490Z,59.63
2017-09-26T05:34:09.036Z,48.00
2017-09-26T05:36:36.778Z,54.93
2017-09-26T05:39:04.389Z,49.17
2017-09-26T05:41:32.227Z,32.60
2017-09-26T05:43:59.818Z,31.43
2017-09-26T05:46:27.766Z,33.57
2017-09-26T05:48:55.665Z,45.23
2017-09-26T05:51:23.623Z,34.33
2017-09-26T05:53:51.912Z,34.50
2017-09-26T05:56:19.496Z,38.87
2017-09-26T05:58:47.061Z,37.20
2017-09-26T06:01:14.955Z,36.73
2017-09-26T06:03:43.244Z,43.00
2017-09-26T06:06:10.754Z,37.10
2017-09-26T06:08:38.696Z,41.20
2017-09-26T06:11:06.985Z,37.43
2017-09-26T06:13:34.535Z,50.13
2017-09-26T06:16:03.215Z,40.07
2017-09-26T06:18:31.501Z,36.20
2017-09-26T06:20:59.449Z,46.30
2017-09-26T06:23:26.980Z,34.87
2017-09-26T06:25:54.528Z,37.07
2017-09-26T06:28:22.154Z,35.87
2017-09-26T06:30:49.689Z,35.03
2017-09-26T06:33:17.657Z,36.20
2017-09-26T06:35:45.185Z,37.70
2017-09-26T06:38:12.797Z,32.57
2017-09-26T06:40:40.443Z,32.37
2017-09-26T06:43:08.415Z,40.90
2017-09-26T06:45:35.979Z,38.43
2017-09-26T06:48:04.324Z,39.33
2017-09-26T06:50:31.869Z,35.77
2017-09-26T06:52:59.433Z,36.03
2017-09-26T06:55:27.757Z,37.83
2017-09-26T06:57:55.300Z,37.80
2017-09-26T07:00:22.802Z,35.10
2017-09-26T07:02:50.465Z,42.17
2017-09-26T07:05:18.013Z,35.03
2017-09-26T07:07:45.570Z,32.47
2017-09-26T07:10:13.972Z,43.50
2017-09-26T07:12:42.295Z,35.10
2017-09-26T07:15:10.096Z,36.47
2017-09-26T07:17:37.841Z,36.17
2017-09-26T07:20:06.770Z,35.23
2017-09-26T07:22:34.325Z,30.97
2017-09-26T07:25:01.840Z,30.73
2017-09-26T07:27:29.376Z,33.60
2017-09-26T07:29:56.903Z,27.47
2017-09-26T07:32:24.452Z,28.47
2017-09-26T07:34:51.972Z,33.87
2017-09-26T07:37:19.480Z,46.93
2017-09-26T07:39:47.038Z,36.30
2017-09-26T07:42:14.544Z,28.00
2017-09-26T07:44:42.842Z,28.43
2017-09-26T07:47:10.400Z,34.10
2017-09-26T07:49:38.301Z,32.50
2017-09-26T07:52:06.250Z,29.07
2017-09-26T07:54:33.812Z,35.57
2017-09-26T07:57:01.335Z,28.33
2017-09-26T07:59:29.667Z,34.20
2017-09-26T08:01:57.573Z,34.00
2017-09-26T08:04:25.436Z,37.13
2017-09-26T08:06:53.737Z,34.57
2017-09-26T08:09:21.582Z,31.27
2017-09-26T08:11:49.703Z,27.67
2017-09-26T08:14:17.228Z,33.23
2017-09-26T08:16:44.735Z,32.30
2017-09-26T08:19:13.041Z,36.63
2017-09-26T08:21:41.460Z,33.67
2017-09-26T08:24:08.963Z,28.80
2017-09-26T08:26:36.868Z,34.73
2017-09-26T08:29:04.804Z,28.80
2017-09-26T08:31:32.739Z,30.83
2017-09-26T08:34:00.659Z,31.30
2017-09-26T08:36:28.167Z,32.47
2017-09-26T08:38:56.141Z,30.03
2017-09-26T08:41:23.666Z,24.13
2017-09-26T08:43:51.164Z,26.03
2017-09-26T08:46:18.701Z,25.57
2017-09-26T08:48:46.964Z,26.30
2017-09-26T08:51:14.891Z,27.73
2017-09-26T08:53:42.785Z,31.83
2017-09-26T08:56:11.096Z,31.33
2017-09-26T08:58:38.592Z,32.53
2017-09-26T09:01:06.120Z,25.07
2017-09-26T09:03:34.009Z,33.30
2017-09-26T09:06:02.245Z,28.37
2017-09-26T09:08:29.774Z,28.00
2017-09-26T09:10:58.185Z,31.30
2017-09-26T09:13:26.140Z,30.83
2017-09-26T09:15:53.653Z,31.30
2017-09-26T09:18:21.556Z,35.03
2017-09-26T09:20:49.323Z,35.80
2017-09-26T09:23:17.588Z,32.87
2017-09-26T09:25:45.911Z,41.43
2017-09-26T09:28:13.805Z,34.80
2017-09-26T09:30:41.752Z,35.73
2017-09-26T09:33:09.276Z,33.73
2017-09-26T09:35:36.830Z,34.77
2017-09-26T09:38:05.150Z,36.40
2017-09-26T09:40:33.407Z,33.67
2017-09-26T09:43:01.735Z,35.90
2017-09-26T09:45:30.591Z,34.83
2017-09-26T09:47:58.125Z,43.00
2017-09-26T09:50:26.031Z,38.23
2017-09-26T09:52:53.572Z,37.10
2017-09-26T09:55:21.071Z,41.50
2017-09-26T09:57:49.339Z,35.83
2017-09-26T10:00:16.864Z,40.33
2017-09-26T10:02:44.396Z,33.70
2017-09-26T10:05:12.067Z,34.20
2017-09-26T10:07:40.594Z,33.33
2017-09-26T10:10:08.243Z,38.27
2017-09-26T10:12:36.564Z,32.13
2017-09-26T10:15:04.508Z,30.17
2017-09-26T10:17:32.028Z,34.50
2017-09-26T10:19:59.972Z,34.50
2017-09-26T10:22:27.633Z,33.50
2017-09-26T10:24:55.178Z,39.60
2017-09-26T10:27:23.496Z,33.27
2017-09-26T10:29:51.106Z,37.17
2017-09-26T10:32:18.618Z,39.53
2017-09-26T10:34:46.159Z,32.83
2017-09-26T10:37:13.666Z,30.93
2017-09-26T10:39:41.176Z,31.20
2017-09-26T10:42:08.711Z,24.93
2017-09-26T10:44:36.632Z,31.97
2017-09-26T10:47:04.584Z,27.13
2017-09-26T10:49:32.115Z,38.20
2017-09-26T10:52:00.217Z,31.63
2017-09-26T10:54:28.267Z,33.63
2017-09-26T10:56:56.579Z,43.30
2017-09-26T10:59:24.908Z,35.23
2017-09-26T11:01:52.450Z,31.30
2017-09-26T11:04:20.397Z,32.67
2017-09-26T11:06:47.948Z,26.37
2017-09-26T11:09:15.588Z,28.73
2017-09-26T11:11:43.151Z,29.10
2017-09-26T11:14:10.762Z,32.07
2017-09-26T11:16:39.421Z,37.17
2017-09-26T11:19:07.737Z,25.60
2017-09-26T11:21:36.020Z,32.00
2017-09-26T11:24:04.583Z,27.77
2017-09-26T11:26:32.896Z,29.80
2017-09-26T11:29:01.176Z,27.10
2017-09-26T11:31:28.888Z,30.27
2017-09-26T11:33:57.181Z,36.50
2017-09-26T11:36:25.749Z,25.73
2017-09-26T11:38:54.400Z,33.73
2017-09-26T11:41:22.084Z,27.53
2017-09-26T11:43:49.621Z,32.23
2017-09-26T11:46:17.168Z,48.23
2017-09-26T11:48:45.436Z,24.70
2017-09-26T11:51:14.082Z,25.60
2017-09-26T11:53:42.036Z,33.63
2017-09-26T11:56:09.530Z,26.57
2017-09-26T11:58:37.437Z,22.10
2017-09-26T12:01:07.129Z,22.27
2017-09-26T12:03:34.629Z,23.50
2017-09-26T12:06:02.552Z,29.90
2017-09-26T12:08:30.472Z,27.60
2017-09-26T12:10:58.736Z,36.53
2017-09-26T12:13:31.969Z,36.43
2017-09-26T12:15:59.476Z,27.90
2017-09-26T12:18:27.022Z,26.53
2017-09-26T12:20:54.922Z,26.83
2017-09-26T12:23:22.437Z,23.57
2017-09-26T12:25:49.996Z,24.10
2017-09-26T12:28:17.510Z,27.60
2017-09-26T12:30:45.411Z,27.10
2017-09-26T12:33:13.753Z,24.60
2017-09-26T12:35:42.052Z,26.20
2017-09-26T12:38:09.948Z,28.13
2017-09-26T12:40:37.887Z,28.33
2017-09-26T12:43:06.191Z,24.50
2017-09-26T12:45:34.852Z,27.17
2017-09-26T12:48:02.755Z,26.47
2017-09-26T12:50:30.316Z,23.57
2017-09-26T12:52:57.885Z,19.50
2017-09-26T12:55:26.200Z,25.17
2017-09-26T12:57:54.117Z,18.93
2017-09-26T13:00:22.026Z,22.70
2017-09-26T13:02:49.571Z,17.30
2017-09-26T13:05:17.513Z,17.17
2017-09-26T13:07:45.120Z,23.37
2017-09-26T13:10:14.028Z,25.93
2017-09-26T13:12:41.924Z,22.33
2017-09-26T13:15:09.418Z,23.73
2017-09-26T13:17:36.956Z,26.10
2017-09-26T13:20:04.457Z,20.40
2017-09-26T13:22:32.398Z,20.90
2017-09-26T13:25:00.340Z,26.43
2017-09-26T13:27:28.243Z,17.70
2017-09-26T13:29:55.780Z,17.93
2017-09-26T13:32:23.329Z,15.50
2017-09-26T13:34:51.651Z,20.10
2017-09-26T13:37:19.928Z,16.40
2017-09-26T13:39:47.899Z,24.83
2017-09-26T13:42:16.522Z,18.53
2017-09-26T13:44:44.019Z,18.93
2017-09-26T13:47:11.556Z,36.00
2017-09-26T13:49:39.113Z,16.27
2017-09-26T13:52:08.079Z,20.67
2017-09-26T13:54:36.498Z,22.80
2017-09-26T13:57:05.297Z,19.70
2017-09-26T13:59:33.270Z,20.33
2017-09-26T14:02:01.217Z,21.10
2017-09-26T14:04:29.124Z,19.40
2017-09-26T14:06:57.697Z,22.10
2017-09-26T14:09:25.203Z,16.50
2017-09-26T14:11:53.480Z,19.63
2017-09-26T14:14:22.155Z,16.10
2017-09-26T14:16:49.731Z,15.67
2017-09-26T14:19:17.225Z,18.07
2017-09-26T14:21:44.728Z,19.27
2017-09-26T14:24:13.053Z,14.40
2017-09-26T14:26:40.559Z,22.20
2017-09-26T14:29:08.860Z,15.27
2017-09-26T14:31:36.792Z,10.47
2017-09-26T14:34:05.113Z,9.53
2017-09-26T14:36:33.036Z,7.07
2017-09-26T14:39:01.302Z,8.53
2017-09-26T14:41:29.220Z,8.23
2017-09-26T14:43:57.136Z,10.10
2017-09-26T14:46:25.397Z,7.03
2017-09-26T14:48:53.337Z,15.07
2017-09-26T14:51:20.874Z,9.27
2017-09-26T14:53:48.802Z,14.97
2017-09-26T14:56:16.352Z,15.67
2017-09-26T14:58:44.246Z,12.37
2017-09-26T15:01:12.148Z,10.63
2017-09-26T15:03:40.072Z,12.47
2017-09-26T15:06:08.363Z,5.77
2017-09-26T15:08:35.908Z,8.70
2017-09-26T15:11:03.407Z,11.10
2017-09-26T15:13:30.903Z,10.70
2017-09-26T15:15:58.864Z,8.77
2017-09-26T15:18:26.372Z,16.57
2017-09-26T15:20:53.906Z,8.87
2017-09-26T15:23:22.229Z,14.13
2017-09-26T15:25:49.799Z,12.60
2017-09-26T15:28:17.614Z,8.63
2017-09-26T15:30:45.933Z,9.73
2017-09-26T15:33:13.432Z,8.90
2017-09-26T15:35:41.036Z,9.03
2017-09-26T15:38:08.586Z,8.73
2017-09-26T15:40:36.659Z,7.80
2017-09-26T15:43:04.213Z,9.60
2017-09-26T15:45:33.272Z,8.93
2017-09-26T15:48:00.760Z,12.20
2017-09-26T15:50:29.400Z,9.70
2017-09-26T15:52:57.553Z,10.73
2017-09-26T15:55:25.828Z,11.93
2017-09-26T15:57:53.732Z,13.90
2017-09-26T16:00:21.275Z,14.53
2017-09-26T16:02:49.582Z,10.00
2017-09-26T16:05:17.511Z,15.13
2017-09-26T16:07:45.826Z,13.73
2017-09-26T16:10:14.014Z,14.10
2017-09-26T16:12:42.277Z,19.70
2017-09-26T16:15:09.778Z,13.20
2017-09-26T16:17:37.962Z,12.50
2017-09-26T16:20:06.464Z,24.70
2017-09-26T16:22:34.820Z,16.93
2017-09-26T16:25:03.081Z,14.40
2017-09-26T16:27:31.022Z,23.20
2017-09-26T16:29:58.533Z,19.13
2017-09-26T16:32:26.049Z,18.90
2017-09-26T16:34:54.769Z,21.80
2017-09-26T16:37:22.745Z,22.10
2017-09-26T16:39:51.016Z,18.23
2017-09-26T16:42:19.085Z,18.83
2017-09-26T16:44:47.019Z,13.13
2017-09-26T16:47:15.294Z,23.93
2017-09-26T16:49:42.807Z,13.00
2017-09-26T16:52:10.370Z,15.83
2017-09-26T16:54:38.110Z,19.60
2017-09-26T16:57:06.400Z,15.83
2017-09-26T16:59:35.429Z,14.10
2017-09-26T17:02:03.739Z,15.93
2017-09-26T17:04:31.242Z,18.93
2017-09-26T17:06:58.980Z,13.87
2017-09-26T17:09:27.668Z,15.57
2017-09-26T17:11:55.924Z,10.80
2017-09-26T17:14:23.839Z,9.63
2017-09-26T17:16:51.757Z,8.20
2017-09-26T17:19:19.661Z,11.97
2017-09-26T17:21:48.372Z,19.00
2017-09-26T17:24:16.268Z,17.13
2017-09-26T17:26:44.536Z,11.90
2017-09-26T17:29:12.100Z,12.77
2017-09-26T17:31:40.747Z,15.30
2017-09-26T17:34:08.682Z,18.67
2017-09-26T17:36:36.211Z,20.07
2017-09-26T17:39:04.105Z,16.23
2017-09-26T17:41:32.044Z,15.47
2017-09-26T17:43:59.560Z,22.33
2017-09-26T17:46:27.198Z,15.80
2017-09-26T17:48:54.725Z,16.23
2017-09-26T17:51:23.080Z,19.60
2017-09-26T17:53:50.972Z,18.67
2017-09-26T17:56:18.876Z,14.63
2017-09-26T17:58:46.415Z,16.50
2017-09-26T18:01:13.955Z,17.07
2017-09-26T18:03:41.515Z,18.40
2017-09-26T18:06:09.800Z,20.70
2017-09-26T18:08:37.337Z,18.23
2017-09-26T18:11:04.843Z,17.93
2017-09-26T18:13:32.784Z,20.13
2017-09-26T18:16:00.308Z,18.33
2017-09-26T18:18:27.800Z,23.57
2017-09-26T18:20:56.120Z,19.87
2017-09-26T18:23:23.627Z,25.33
2017-09-26T18:25:51.946Z,25.60
2017-09-26T18:28:19.483Z,26.57
2017-09-26T18:30:46.998Z,18.93
2017-09-26T18:33:14.569Z,26.03
2017-09-26T18:35:42.100Z,21.10
2017-09-26T18:38:09.638Z,18.30
2017-09-26T18:40:37.180Z,21.80
2017-09-26T18:43:04.752Z,19.37
2017-09-26T18:45:32.316Z,18.83
2017-09-26T18:47:59.824Z,21.50
2017-09-26T18:50:28.116Z,21.30
2017-09-26T18:52:56.446Z,24.30
2017-09-26T18:55:24.192Z,22.20
2017-09-26T18:57:52.162Z,23.33
2017-09-26T19:00:19.707Z,21.07
2017-09-26T19:02:47.228Z,17.03
2017-09-26T19:05:14.737Z,19.70
2017-09-26T19:07:42.284Z,22.60
2017-09-26T19:10:09.794Z,17.70
2017-09-26T19:12:37.314Z,16.80
2017-09-26T19:15:04.864Z,16.57
2017-09-26T19:17:32.400Z,15.97
2017-09-26T19:19:59.901Z,16.20
2017-09-26T19:22:28.219Z,19.50
2017-09-26T19:24:56.152Z,14.73
2017-09-26T19:27:23.717Z,15.47
2017-09-26T19:29:51.253Z,16.27
2017-09-26T19:32:19.188Z,18.27
2017-09-26T19:34:47.443Z,14.83
2017-09-26T19:37:14.944Z,11.97
2017-09-26T19:39:42.880Z,12.53
2017-09-26T19:42:10.382Z,10.50
2017-09-26T19:44:37.896Z,12.00
2017-09-26T19:47:05.459Z,15.60
2017-09-26T19:49:33.177Z,11.30
2017-09-26T19:52:00.740Z,14.50
2017-09-26T19:54:29.045Z,13.83
2017-09-26T19:56:56.548Z,12.20
2017-09-26T19:59:24.161Z,12.70
2017-09-26T20:01:51.831Z,17.63
2017-09-26T20:04:19.739Z,14.00
2017-09-26T20:06:47.248Z,12.33
2017-09-26T20:09:15.567Z,15.50
2017-09-26T20:11:43.117Z,13.00
2017-09-26T20:14:11.401Z,12.90
2017-09-26T20:16:38.932Z,13.83
2017-09-26T20:19:06.454Z,15.97
2017-09-26T20:21:33.987Z,14.97
2017-09-26T20:24:01.577Z,15.13
2017-09-26T20:26:29.144Z,19.70
2017-09-26T20:28:56.665Z,18.20
2017-09-26T20:31:24.180Z,18.60
2017-09-26T20:33:51.717Z,20.37
2017-09-26T20:36:19.652Z,20.20
2017-09-26T20:38:47.280Z,25.30
2017-09-26T20:41:15.629Z,22.90
2017-09-26T20:43:43.540Z,22.13
2017-09-26T20:46:11.818Z,22.03
2017-09-26T20:48:40.248Z,24.13
2017-09-26T20:51:07.884Z,29.13
2017-09-26T20:53:35.405Z,23.43
2017-09-26T20:56:02.973Z,22.03
2017-09-26T20:58:32.006Z,21.53
2017-09-26T21:00:59.544Z,22.63
2017-09-26T21:03:27.220Z,24.20
2017-09-26T21:05:54.724Z,21.50
2017-09-26T21:08:22.294Z,22.40
2017-09-26T21:10:50.288Z,19.77
2017-09-26T21:13:17.973Z,27.33
2017-09-26T21:15:45.883Z,22.27
2017-09-26T21:18:13.441Z,23.20
2017-09-26T21:20:40.969Z,22.10
2017-09-26T21:23:08.488Z,17.93
2017-09-26T21:25:36.801Z,19.87
2017-09-26T21:28:04.380Z,18.50
2017-09-26T21:30:31.943Z,15.80
2017-09-26T21:32:59.520Z,14.83
2017-09-26T21:35:27.152Z,16.50
2017-09-26T21:37:54.654Z,13.40
2017-09-26T21:40:22.199Z,14.23
2017-09-26T21:42:49.840Z,11.67
2017-09-26T21:45:17.336Z,10.50
2017-09-26T21:47:45.596Z,14.80
2017-09-26T21:50:13.142Z,11.50
2017-09-26T21:52:40.676Z,10.40
2017-09-26T21:55:08.188Z,11.10
2017-09-26T21:57:35.726Z,9.73
2017-09-26T22:00:03.257Z,9.00
2017-09-26T22:02:30.767Z,10.00
2017-09-26T22:04:59.080Z,8.30
2017-09-26T22:07:26.600Z,12.63
2017-09-26T22:09:54.921Z,11.23
2017-09-26T22:12:23.228Z,8.40
2017-09-26T22:14:50.721Z,8.80
2017-09-26T22:17:19.025Z,8.10
2017-09-26T22:22:20.132Z,6.43
2017-09-26T22:24:47.686Z,7.67
2017-09-26T22:27:15.189Z,6.83
2017-09-26T22:29:42.719Z,5.37
2017-09-26T22:32:10.312Z,5.23
2017-09-26T22:34:37.816Z,7.17
2017-09-26T22:37:05.447Z,7.17
2017-09-26T22:39:33.570Z,5.33
2017-09-26T22:42:01.908Z,5.57
2017-09-26T22:44:29.404Z,5.33
2017-09-26T22:46:57.173Z,5.13
2017-09-26T22:49:25.132Z,8.63
2017-09-26T22:51:52.664Z,4.60
2017-09-26T22:54:20.253Z,6.63
2017-09-26T22:56:48.565Z,5.37
2017-09-26T22:59:16.911Z,4.57
2017-09-26T23:01:44.451Z,5.27
2017-09-26T23:04:11.963Z,6.93
2017-09-26T23:06:39.524Z,5.70
2017-09-26T23:09:07.075Z,5.33
2017-09-26T23:11:34.592Z,5.60
2017-09-26T23:14:02.102Z,5.80
2017-09-26T23:16:29.693Z,7.87
2017-09-26T23:18:57.384Z,7.07
2017-09-26T23:21:25.323Z,6.10
2017-09-26T23:23:52.825Z,6.00
2017-09-26T23:26:20.326Z,4.80
2017-09-26T23:28:48.647Z,4.67
2017-09-26T23:31:16.164Z,6.23
2017-09-26T23:33:44.425Z,6.50
2017-09-26T23:36:12.832Z,6.77
2017-09-26T23:38:41.093Z,7.30
2017-09-26T23:41:09.400Z,4.70
2017-09-26T23:43:37.719Z,5.03
2017-09-26T23:46:05.247Z,4.63
2017-09-26T23:48:32.785Z,6.27
2017-09-26T23:51:00.335Z,7.80
2017-09-26T23:53:27.866Z,5.70
2017-09-26T23:55:55.384Z,8.90
2017-09-26T23:58:22.957Z,5.60
